Webcam  Webcam


Lyn radar more information blitzortung!


Regn radar more information rain snow radar



Lokal METAR Rapport

   
EHVK - Volkel Rnlafb, Netherlands
Afstand fra station: SV 18 km
Opdateret: 16-01-2021 22:25
Light Freezing, Regn, Let Sne, mest skyet  
Light Freezing, Regn, Let Sne, mest skyet  
   Vind: Syd 3.1 m/s
Vind: Syd 3.1 m/s
Temperatur: 0°C
Kuldeindeks: -3°C
Dugpunkt: -1°C
Luftfugtighed: 93%
Barometer: 1016 hPa
Skyet: mest skyet
Sigtbarhed: 3 km
Sky detaljer: Let Skyet 400 ft,
Delvis skyet 500 ft,
mest skyet 700 ft
EHVK 162125Z AUTO 17006KT 140V200 2800 -FZRA -SN FEW004 SCT005 BKN007 M00/M01 Q1016 YLO
EDLV - Niederrhein, Germany
Afstand fra station: SØ 25 km
Opdateret: 16-01-2021 22:20
Sne, mest skyet  
Sne, mest skyet  
   Vind: SSØ 3.6 m/s
Vind: SSØ 3.6 m/s
Temperatur: -1°C
Kuldeindeks: -5°C
Dugpunkt: -2°C
Luftfugtighed: 93%
Barometer: 1017 hPa
Skyet: mest skyet
Sigtbarhed: 3 km
Sky detaljer: mest skyet 900 ft
EDLV 162120Z 15007KT 3300 SN BKN009 M01/M02 Q1017
EHDL - Deelen Rnlafb, Netherlands
Afstand fra station: N 35 km
Opdateret: 16-01-2021 22:25
Let finsne, mest skyet  
Let finsne, mest skyet  
   Vind: SSØ 3.6 m/s
Vind: SSØ 3.6 m/s
Temperatur: -1°C
Kuldeindeks: -5°C
Dugpunkt: -1°C
Luftfugtighed: 100%
Barometer: 1016 hPa
Skyet: mest skyet
Sigtbarhed: 2 km
Sky detaljer: Let Skyet 500 ft,
Delvis skyet 700 ft,
mest skyet 1300 ft
EHDL 162125Z AUTO 16007KT 120V220 2400 -SG FEW005 SCT007 BKN013 M01/M01 Q1016 REFZRA YLO
EHEH - Eindhoven Rnlafb, Netherlands
Afstand fra station: SV 48 km
Opdateret: 16-01-2021 21:55
Let Sne, mest skyet  
Let Sne, mest skyet  
   Vind: SSØ 3.1 m/s
Vind: SSØ 3.1 m/s
Temperatur: -1°C
Kuldeindeks: -5°C
Dugpunkt: -1°C
Luftfugtighed: 100%
Barometer: 1017 hPa
Skyet: mest skyet
Sigtbarhed: 3 km
Sky detaljer: Let Skyet 500 ft,
Delvis skyet 700 ft,
mest skyet 800 ft
EHEH 162055Z AUTO 16006KT 140V200 2500 -SN FEW005 SCT007 BKN008 M01/M01 Q1017 REFZRA YLO
EHGR - Gilze-Rijen Rnla, Netherlands
Afstand fra station: VSV 70 km
Opdateret: 16-01-2021 22:25
Let tåge, Overskyet  
Let tåge, Overskyet  
   Vind: Syd 3.1 m/s
Vind: Syd 3.1 m/s
Temperatur: 0°C
Kuldeindeks: -3°C
Dugpunkt: -1°C
Luftfugtighed: 93%
Barometer: 1016 hPa
Skyet: Overskyet
Sigtbarhed: 4 km
Sky detaljer: Delvis skyet 400 ft,
Overskyet 500 ft
EHGR 162125Z AUTO 18006KT 140V200 4200 BR SCT004 OVC005 M00/M01 Q1016 YLO
EBBL - Kleine-Brogel(Ba, Belgium
Afstand fra station: SSV 71 km
Opdateret: 16-01-2021 22:09
Snefnug, mest skyet  
Snefnug, mest skyet  
   Vind: Syd 2.1 m/s
Vind: Syd 2.1 m/s
Temperatur: -1°C
Kuldeindeks: -4°C
Dugpunkt: -1°C
Luftfugtighed: 100%
Barometer: 1016 hPa
Skyet: mest skyet
Sigtbarhed: 4 km
Sky detaljer: Delvis skyet 700 ft,
mest skyet 900 ft
EBBL 162109Z 19004KT 3700 SG SCT007 BKN009 M01/M01 Q1016 BLACKGRN YLO TEMPO GRN

Script udviklet af  Saratoga-weather.org Tilpasset til denne template af  Weerstation Leuven

Du finder også vores vejrinformationer på:

UK Metoffice

European Weather Network

WeatherCloud

Weather Underground

AWEKAS

Citizen Weather Observer Program (CWOP)

HAMweather, WeatherForYou, PWS Weather

Udstyr som vi anvender:

Vejrstation
Davis VP2

Vejrprogram
Meteobridge

Vejrserver
Meteobridge Pro

Davis VP2

Meteobridge

Meteobridge Pro